Time;durP1;ratioP1;P1;durP2;ratioP2;P2;SDS_P1;SDS_P2;PMS_P1;PMS_P2;Temp;Humidity;BMP_temperature;BMP_pressure;BME280_temperature;BME280_humidity;BME280_pressure;Samples;Min_cycle;Max_cycle;Signal;HPM_P1;HPM_P2
2022/05/22 00:00:42;;;;;;;3.95;2.45;;;11.40;99.90;;;;;;4988167;28;20453;-61
2022/05/22 00:03:09;;;;;;;9.10;2.35;;;11.40;99.90;;;;;;5005473;28;20217;-62
2022/05/22 00:05:36;;;;;;;4.22;2.05;;;11.50;99.90;;;;;;4989894;28;20198;-61
2022/05/22 00:08:03;;;;;;;6.88;2.22;;;11.40;99.90;;;;;;5013645;28;20408;-61
2022/05/22 00:10:30;;;;;;;5.07;2.42;;;11.40;99.90;;;;;;4990733;28;20226;-61
2022/05/22 00:12:58;;;;;;;9.50;3.08;;;12.60;99.90;;;;;;4978063;28;20606;-61
2022/05/22 00:15:25;;;;;;;8.52;2.28;;;11.50;99.90;;;;;;5008211;28;20198;-61
2022/05/22 00:17:52;;;;;;;9.15;2.65;;;11.40;99.90;;;;;;4995084;28;20399;-61
2022/05/22 00:20:19;;;;;;;11.27;2.97;;;11.40;99.90;;;;;;4983829;28;20397;-61
2022/05/22 00:22:46;;;;;;;6.32;2.42;;;11.50;99.90;;;;;;5009298;28;20257;-61
2022/05/22 00:25:13;;;;;;;8.65;2.42;;;11.40;99.90;;;;;;4995023;28;20664;-61
2022/05/22 00:27:42;;;;;;;17.30;3.03;;;11.50;99.90;;;;;;4972792;28;20198;-61
2022/05/22 00:30:12;;;;;;;4.88;2.40;;;11.40;99.90;;;;;;5007920;28;20370;-61
2022/05/22 00:32:39;;;;;;;10.25;3.33;;;11.40;99.90;;;;;;4995739;28;20195;-61
2022/05/22 00:35:07;;;;;;;16.33;3.40;;;11.20;99.90;;;;;;4990500;28;20810;-61
2022/05/22 00:37:34;;;;;;;11.43;3.00;;;11.20;99.90;;;;;;5012635;28;20569;-62
2022/05/22 00:40:01;;;;;;;6.75;2.83;;;11.30;99.90;;;;;;4984461;28;20202;-61
2022/05/22 00:42:28;;;;;;;9.60;3.15;;;11.30;99.90;;;;;;5011219;28;20205;-62
2022/05/22 00:44:55;;;;;;;5.65;2.35;;;11.30;99.90;;;;;;4990324;28;20194;-61
2022/05/22 00:47:24;;;;;;;6.10;2.55;;;11.30;99.90;;;;;;4999977;28;21134;-61
2022/05/22 00:49:59;;;;;;;7.38;2.80;;;11.40;99.90;;;;;;4994791;28;20829;-61
2022/05/22 00:52:30;;;;;;;8.07;2.78;;;11.40;99.90;;;;;;5007720;28;20515;-61
2022/05/22 00:55:00;;;;;;;12.30;3.05;;;11.40;99.90;;;;;;4999513;28;20198;-61
2022/05/22 00:57:32;;;;;;;9.75;3.42;;;11.40;99.90;;;;;;4999712;28;20211;-61
2022/05/22 01:00:03;;;;;;;7.95;2.80;;;11.40;99.90;;;;;;4990964;28;20210;-61
2022/05/22 01:03:26;;;;;;;7.93;2.50;;;11.30;99.90;;;;;;4995501;28;20212;-61
2022/05/22 01:05:18;;;;;;;7.03;2.72;;;11.40;99.90;;;;;;4997655;28;20671;-61
2022/05/22 01:07:46;;;;;;;11.10;3.05;;;11.20;99.90;;;;;;5015747;28;20194;-61
2022/05/22 01:10:13;;;;;;;5.53;3.22;;;11.30;99.90;;;;;;4999423;28;20476;-61
2022/05/22 01:12:42;;;;;;;5.05;2.80;;;11.30;99.90;;;;;;4997499;28;20206;-61
2022/05/22 01:15:10;;;;;;;6.53;3.10;;;11.30;99.90;;;;;;5000552;28;20719;-61
2022/05/22 01:17:42;;;;;;;5.55;2.92;;;11.30;99.90;;;;;;4986300;28;20195;-61
2022/05/22 01:20:11;;;;;;;9.43;3.13;;;11.30;99.90;;;;;;4992038;28;20203;-62
2022/05/22 01:22:39;;;;;;;5.70;2.95;;;11.30;99.90;;;;;;4999299;28;20289;-61
2022/05/22 01:25:07;;;;;;;4.70;2.53;;;11.30;99.90;;;;;;5011827;28;20954;-61
2022/05/22 01:27:34;;;;;;;7.00;2.80;;;11.80;99.90;;;;;;4993205;28;20205;-61
2022/05/22 01:30:09;;;;;;;4.32;2.85;;;11.20;99.90;;;;;;4999402;28;20624;-61
2022/05/22 01:32:37;;;;;;;13.40;2.80;;;11.20;99.90;;;;;;4996196;28;21316;-61
2022/05/22 01:35:05;;;;;;;8.73;3.33;;;11.20;99.90;;;;;;5009592;28;20206;-61
2022/05/22 01:37:32;;;;;;;6.03;2.40;;;11.10;99.90;;;;;;4995033;28;20197;-61
2022/05/22 01:40:00;;;;;;;6.07;3.00;;;11.10;99.90;;;;;;5008936;28;21561;-61
2022/05/22 01:42:27;;;;;;;8.70;2.90;;;12.20;99.90;;;;;;5012179;28;20202;-61
2022/05/22 01:44:53;;;;;;;3.78;2.28;;;11.00;99.90;;;;;;4985823;28;20236;-61
2022/05/22 01:47:20;;;;;;;8.35;2.78;;;10.90;99.90;;;;;;5004725;28;20478;-61
2022/05/22 01:49:47;;;;;;;7.97;2.72;;;11.00;99.90;;;;;;4997432;28;20732;-61
2022/05/22 01:52:14;;;;;;;8.00;2.78;;;11.00;99.90;;;;;;4982886;28;20506;-61
2022/05/22 01:54:41;;;;;;;4.22;2.33;;;11.00;99.90;;;;;;5009919;28;20576;-61
2022/05/22 01:57:09;;;;;;;4.78;2.45;;;10.90;99.90;;;;;;4992048;28;20754;-61
2022/05/22 01:59:36;;;;;;;9.55;2.60;;;10.90;99.90;;;;;;4991659;28;20213;-61
2022/05/22 02:02:03;;;;;;;5.22;2.47;;;10.80;99.90;;;;;;4999586;28;20209;-61
2022/05/22 02:04:30;;;;;;;10.88;2.70;;;10.80;99.90;;;;;;4983066;28;20338;-61
2022/05/22 02:09:41;;;;;;;7.15;2.70;;;10.70;99.90;;;;;;4974428;28;20627;-61
2022/05/22 02:12:10;;;;;;;5.18;2.33;;;10.70;99.90;;;;;;5015123;28;20512;-61
2022/05/22 02:14:37;;;;;;;12.95;3.00;;;10.60;99.90;;;;;;4991430;28;20800;-61
2022/05/22 02:17:04;;;;;;;6.07;3.08;;;10.70;99.90;;;;;;5000379;28;20591;-62
2022/05/22 02:19:31;;;;;;;7.28;2.40;;;10.90;99.90;;;;;;5010877;28;20571;-61
2022/05/22 02:21:58;;;;;;;4.50;2.53;;;10.60;99.90;;;;;;5014309;28;20206;-61
2022/05/22 02:24:25;;;;;;;6.32;3.50;;;10.70;99.90;;;;;;4989438;28;20322;-61
2022/05/22 02:26:51;;;;;;;9.35;2.58;;;10.70;99.90;;;;;;5016718;28;20233;-61
2022/05/22 02:29:20;;;;;;;4.53;2.60;;;10.70;99.90;;;;;;5011984;28;20222;-61
2022/05/22 02:31:46;;;;;;;3.05;2.63;;;10.70;99.90;;;;;;4985477;28;23938;-59
2022/05/22 02:34:13;;;;;;;6.82;3.42;;;10.70;99.90;;;;;;5010145;28;20213;-59
2022/05/22 02:36:40;;;;;;;8.88;2.85;;;10.70;99.90;;;;;;4999424;28;22329;-61
2022/05/22 02:39:07;;;;;;;6.35;2.40;;;;;;;;;;5014665;28;20202;-60
2022/05/22 02:41:34;;;;;;;8.85;2.80;;;10.70;99.90;;;;;;4982848;28;20209;-60
2022/05/22 02:44:01;;;;;;;2.40;2.00;;;10.60;99.90;;;;;;4998170;28;20202;-60
2022/05/22 02:46:29;;;;;;;5.03;2.97;;;10.50;99.90;;;;;;4988839;28;20206;-60
2022/05/22 02:48:56;;;;;;;5.07;2.65;;;10.50;99.90;;;;;;4988461;28;20202;-61
2022/05/22 02:51:23;;;;;;;8.10;2.72;;;10.40;99.90;;;;;;5012327;28;20208;-61
2022/05/22 02:53:50;;;;;;;4.95;2.53;;;10.50;99.90;;;;;;5009788;28;20216;-61
2022/05/22 02:56:18;;;;;;;3.97;2.25;;;10.50;99.90;;;;;;4983369;28;20236;-61
2022/05/22 02:58:45;;;;;;;6.13;2.28;;;10.20;99.90;;;;;;5008575;28;20283;-61
2022/05/22 03:01:12;;;;;;;5.20;2.53;;;10.30;99.90;;;;;;5007705;28;20201;-61
2022/05/22 03:03:40;;;;;;;5.63;2.92;;;10.30;99.90;;;;;;4982775;28;20511;-61
2022/05/22 03:08:52;;;;;;;7.32;2.67;;;10.20;99.90;;;;;;5010124;28;20201;-61
2022/05/22 03:11:19;;;;;;;5.35;2.63;;;10.20;99.90;;;;;;4985643;28;20707;-61
2022/05/22 03:13:46;;;;;;;8.13;2.78;;;10.20;99.90;;;;;;5002579;28;20655;-61
2022/05/22 03:16:13;;;;;;;3.88;2.08;;;9.90;99.90;;;;;;5008581;28;20204;-61
2022/05/22 03:18:42;;;;;;;6.07;2.53;;;10.00;99.90;;;;;;4975769;28;20210;-61
2022/05/22 03:21:08;;;;;;;3.50;2.17;;;10.00;99.90;;;;;;5010508;28;20201;-61
2022/05/22 03:23:37;;;;;;;3.65;2.50;;;10.10;99.90;;;;;;5003953;28;20194;-61
2022/05/22 03:26:04;;;;;;;3.95;2.53;;;9.90;99.90;;;;;;4984113;28;20388;-61
2022/05/22 03:28:31;;;;;;;10.07;3.05;;;9.80;99.90;;;;;;4989235;28;20199;-61
2022/05/22 03:30:58;;;;;;;7.80;2.40;;;10.00;99.90;;;;;;5005515;28;20796;-61
2022/05/22 03:33:25;;;;;;;5.57;2.63;;;10.00;99.90;;;;;;4989155;28;20212;-61
2022/05/22 03:35:53;;;;;;;5.60;2.50;;;10.00;99.90;;;;;;4993415;28;20451;-61
2022/05/22 03:38:20;;;;;;;7.03;2.70;;;10.00;99.90;;;;;;5008143;28;20225;-61
2022/05/22 03:40:48;;;;;;;10.48;2.47;;;10.00;99.90;;;;;;4991595;28;20860;-61
2022/05/22 03:43:16;;;;;;;4.10;2.58;;;9.80;99.90;;;;;;4993300;28;20210;-61
2022/05/22 03:45:43;;;;;;;9.02;3.10;;;10.40;99.90;;;;;;5001381;28;20205;-61
2022/05/22 03:48:11;;;;;;;8.80;2.95;;;10.10;99.90;;;;;;4991837;28;20697;-61
2022/05/22 03:50:38;;;;;;;7.45;2.83;;;10.10;99.90;;;;;;4989211;28;20317;-60
2022/05/22 03:53:07;;;;;;;5.38;2.90;;;10.20;99.90;;;;;;5006360;28;20498;-61
2022/05/22 03:55:34;;;;;;;9.45;2.95;;;10.20;99.90;;;;;;5004357;28;20214;-61
2022/05/22 03:58:00;;;;;;;7.78;2.95;;;10.20;99.90;;;;;;4979306;28;20434;-61
2022/05/22 04:00:27;;;;;;;5.38;2.90;;;10.30;99.90;;;;;;5003931;28;20228;-60
2022/05/22 04:02:54;;;;;;;5.28;2.30;;;10.30;99.90;;;;;;4984520;28;20214;-61
2022/05/22 04:05:21;;;;;;;9.60;3.05;;;10.20;99.90;;;;;;4992641;28;20206;-61
2022/05/22 04:07:49;;;;;;;5.43;2.78;;;10.30;99.90;;;;;;4999172;28;20434;-61
2022/05/22 04:10:19;;;;;;;3.63;2.58;;;10.30;99.90;;;;;;4999126;28;20926;-61
2022/05/22 04:12:46;;;;;;;5.13;3.03;;;10.30;99.90;;;;;;4979777;28;20221;-61
2022/05/22 04:15:16;;;;;;;4.43;2.70;;;10.30;99.90;;;;;;5011114;28;20209;-61
2022/05/22 04:17:43;;;;;;;3.83;2.53;;;10.30;99.90;;;;;;5000964;28;20205;-61
2022/05/22 04:20:11;;;;;;;5.47;3.25;;;10.30;99.90;;;;;;4981582;28;20550;-61
2022/05/22 04:25:11;;;;;;;4.25;2.78;;;10.30;99.90;;;;;;5009698;28;20209;-61
2022/05/22 04:25:26;;;;;;;6.53;2.92;;;10.20;99.90;;;;;;4998657;28;20745;-61
2022/05/22 04:27:53;;;;;;;5.90;3.10;;;9.90;99.90;;;;;;4974888;28;20989;-61
2022/05/22 04:30:21;;;;;;;5.63;2.88;;;10.30;99.90;;;;;;5008791;28;20229;-61
2022/05/22 04:32:49;;;;;;;5.68;3.47;;;10.10;99.90;;;;;;4990643;28;20521;-61
2022/05/22 04:35:17;;;;;;;5.07;2.85;;;10.30;99.90;;;;;;4997990;28;20217;-61
2022/05/22 04:37:44;;;;;;;5.30;2.90;;;10.30;99.90;;;;;;4985148;28;20213;-61
2022/05/22 04:40:12;;;;;;;4.15;2.95;;;9.80;99.90;;;;;;5011838;28;20693;-61
2022/05/22 04:42:41;;;;;;;4.68;2.63;;;10.20;99.90;;;;;;5002576;28;20209;-61
2022/05/22 04:45:10;;;;;;;5.13;3.38;;;10.20;99.90;;;;;;4999026;28;20202;-61
2022/05/22 04:47:41;;;;;;;6.05;2.95;;;10.20;99.90;;;;;;5005094;28;20202;-65
2022/05/22 04:50:10;;;;;;;5.15;2.78;;;9.80;99.90;;;;;;5015774;28;20235;-61
2022/05/22 04:52:37;;;;;;;8.70;2.58;;;10.20;99.90;;;;;;4984532;28;20202;-61
2022/05/22 04:55:04;;;;;;;6.07;2.78;;;10.20;99.90;;;;;;5011009;28;20206;-61
2022/05/22 04:57:31;;;;;;;4.28;2.53;;;10.20;99.90;;;;;;5005068;28;20209;-61
2022/05/22 05:00:00;;;;;;;5.32;2.47;;;10.20;99.90;;;;;;4981699;28;21098;-61
2022/05/22 05:02:27;;;;;;;3.88;2.50;;;10.30;99.90;;;;;;4990638;28;20198;-61
2022/05/22 05:04:54;;;;;;;4.05;2.78;;;10.40;99.90;;;;;;5005645;28;20438;-61
2022/05/22 05:07:21;;;;;;;4.80;2.38;;;10.40;99.90;;;;;;4967152;28;20202;-61
2022/05/22 05:09:49;;;;;;;4.38;2.60;;;10.40;99.90;;;;;;4998308;28;20610;-61
2022/05/22 05:12:17;;;;;;;6.63;2.95;;;10.50;99.90;;;;;;5014114;28;20205;-61
2022/05/22 05:14:45;;;;;;;6.03;3.10;;;10.40;99.90;;;;;;4984756;28;20206;-61
2022/05/22 05:17:15;;;;;;;7.70;3.60;;;10.70;99.90;;;;;;5016914;28;20827;-61
2022/05/22 05:19:42;;;;;;;8.82;3.25;;;10.70;99.90;;;;;;5000215;28;20221;-61
2022/05/22 05:22:09;;;;;;;5.88;3.00;;;10.90;99.90;;;;;;5008123;28;20268;-61
2022/05/22 05:24:36;;;;;;;5.90;3.35;;;11.10;99.90;;;;;;5003043;28;20340;-61
2022/05/22 05:27:03;;;;;;;9.88;3.33;;;11.10;99.90;;;;;;5006213;28;20293;-61
2022/05/22 05:29:30;;;;;;;8.68;4.00;;;11.20;99.90;;;;;;4997871;28;20205;-61
2022/05/22 05:31:56;;;;;;;5.28;3.45;;;11.30;99.90;;;;;;4982201;28;20234;-61
2022/05/22 05:34:24;;;;;;;11.40;4.00;;;11.40;99.90;;;;;;4998876;28;20232;-61
2022/05/22 05:36:51;;;;;;;7.97;3.42;;;11.50;99.90;;;;;;5015507;28;20207;-61
2022/05/22 05:39:18;;;;;;;6.85;3.28;;;11.70;99.90;;;;;;4974423;28;20209;-61
2022/05/22 05:41:45;;;;;;;8.43;3.60;;;11.70;99.90;;;;;;5004356;28;20234;-61
2022/05/22 05:44:12;;;;;;;9.38;3.63;;;12.80;99.90;;;;;;4989633;28;20223;-61
2022/05/22 05:46:40;;;;;;;8.13;3.28;;;12.00;99.90;;;;;;4988283;28;21112;-61
2022/05/22 05:49:07;;;;;;;9.55;3.88;;;11.90;99.90;;;;;;4996086;28;20206;-61
2022/05/22 05:51:40;;;;;;;9.45;3.58;;;11.80;99.90;;;;;;5000891;28;20421;-61
2022/05/22 05:54:07;;;;;;;11.32;3.50;;;12.00;99.90;;;;;;4995505;28;20696;-61
2022/05/22 05:56:37;;;;;;;6.82;3.38;;;12.10;99.90;;;;;;4995609;28;20396;-61
2022/05/22 05:59:04;;;;;;;8.68;3.40;;;12.20;99.90;;;;;;5000731;28;20225;-61
2022/05/22 06:01:30;;;;;;;7.90;3.63;;;14.80;99.90;;;;;;4972169;28;20321;-61
2022/05/22 06:03:57;;;;;;;5.43;3.35;;;12.30;99.90;;;;;;4989166;28;20217;-61
2022/05/22 06:06:24;;;;;;;9.45;3.47;;;12.20;99.90;;;;;;4983562;28;20222;-61
2022/05/22 06:08:52;;;;;;;10.38;3.63;;;12.30;99.90;;;;;;4985393;28;20667;-61
2022/05/22 06:11:19;;;;;;;10.57;3.78;;;12.30;99.90;;;;;;4986456;28;20241;-61
2022/05/22 06:13:46;;;;;;;9.68;3.58;;;12.40;99.90;;;;;;5009662;28;20198;-61
2022/05/22 06:16:13;;;;;;;5.50;3.22;;;12.40;99.90;;;;;;4978235;28;20224;-61
2022/05/22 06:18:42;;;;;;;9.98;3.30;;;12.50;99.90;;;;;;4985888;28;20596;-61
2022/05/22 06:21:11;;;;;;;10.70;3.88;;;12.30;99.90;;;;;;4994769;28;20198;-61
2022/05/22 06:23:38;;;;;;;10.02;4.35;;;12.90;99.90;;;;;;4995970;28;20430;-61
2022/05/22 06:26:07;;;;;;;7.47;3.05;;;12.60;99.90;;;;;;4975579;28;20226;-61
2022/05/22 06:28:34;;;;;;;11.32;3.30;;;12.60;99.90;;;;;;5006302;28;20237;-61
2022/05/22 06:31:01;;;;;;;7.75;3.67;;;13.00;99.90;;;;;;4973336;28;20234;-61
2022/05/22 06:33:29;;;;;;;8.10;3.65;;;12.90;99.90;;;;;;4990315;28;20202;-61
2022/05/22 06:35:57;;;;;;;8.90;3.05;;;12.80;99.90;;;;;;5005036;28;20297;-61
2022/05/22 06:41:11;;;;;;;6.68;3.58;;;13.20;99.90;;;;;;4974001;28;20252;-62
2022/05/22 06:43:39;;;;;;;13.90;3.95;;;13.00;99.90;;;;;;4992249;28;20209;-62
2022/05/22 06:46:06;;;;;;;9.35;3.13;;;12.80;99.90;;;;;;4973749;28;20241;-61
2022/05/22 06:48:33;;;;;;;8.05;3.40;;;13.00;99.90;;;;;;4996385;28;20218;-62
2022/05/22 06:51:00;;;;;;;5.55;3.03;;;13.00;99.90;;;;;;4980869;28;20217;-62
2022/05/22 06:53:27;;;;;;;7.60;3.17;;;13.20;99.90;;;;;;4976377;28;20384;-62
2022/05/22 06:55:53;;;;;;;7.35;2.85;;;13.10;99.90;;;;;;4978499;28;20206;-62
2022/05/22 06:58:22;;;;;;;8.18;3.28;;;13.10;99.90;;;;;;4984237;28;20204;-61
2022/05/22 07:00:52;;;;;;;6.72;3.20;;;13.10;99.90;;;;;;4982915;28;20694;-61
2022/05/22 07:03:19;;;;;;;7.28;3.33;;;13.10;99.90;;;;;;4979243;28;20378;-61
2022/05/22 07:05:46;;;;;;;15.40;2.97;;;13.20;99.90;;;;;;4989243;28;20198;-61
2022/05/22 07:08:13;;;;;;;8.23;2.42;;;13.20;99.90;;;;;;4982783;28;20205;-61
2022/05/22 07:13:31;;;;;;;5.43;3.00;;;13.20;99.90;;;;;;4984891;28;20206;-61
2022/05/22 07:15:59;;;;;;;9.65;3.00;;;13.30;99.90;;;;;;5005892;28;20317;-61
2022/05/22 07:18:26;;;;;;;3.97;1.60;;;13.40;99.90;;;;;;4985173;28;20616;-61
2022/05/22 07:20:53;;;;;;;5.30;1.92;;;13.20;99.90;;;;;;5006738;28;20222;-61
2022/05/22 07:23:20;;;;;;;6.35;1.60;;;13.50;99.90;;;;;;4957984;28;20657;-61
2022/05/22 07:25:47;;;;;;;7.13;2.63;;;13.10;99.90;;;;;;4990553;28;20631;-62
2022/05/22 07:28:14;;;;;;;7.53;1.67;;;13.40;99.90;;;;;;4954421;28;20234;-62
2022/05/22 07:30:42;;;;;;;4.53;1.85;;;13.30;99.90;;;;;;4994924;28;20217;-61
2022/05/22 07:33:09;;;;;;;5.28;1.88;;;13.80;99.90;;;;;;4970619;28;20222;-61
2022/05/22 07:35:36;;;;;;;4.82;1.38;;;13.50;99.90;;;;;;4981301;28;20222;-61
2022/05/22 07:38:04;;;;;;;4.32;1.90;;;13.60;99.90;;;;;;4980081;28;20218;-62
2022/05/22 07:40:31;;;;;;;7.88;2.03;;;13.70;99.90;;;;;;4982081;28;20214;-62
2022/05/22 07:42:58;;;;;;;3.92;1.42;;;13.70;99.90;;;;;;4985932;28;20577;-62
2022/05/22 07:45:25;;;;;;;5.00;1.45;;;13.90;99.90;;;;;;4973825;28;21035;-61
2022/05/22 07:47:57;;;;;;;7.30;1.63;;;13.00;99.90;;;;;;4976593;28;20206;-63
2022/05/22 07:50:23;;;;;;;6.13;2.15;;;13.70;99.90;;;;;;4981491;28;20226;-62
2022/05/22 07:52:51;;;;;;;9.20;1.63;;;13.80;99.90;;;;;;5002703;28;20249;-62
2022/05/22 07:55:20;;;;;;;5.40;1.30;;;13.80;99.90;;;;;;4960765;28;21085;-61
2022/05/22 07:57:48;;;;;;;4.65;1.65;;;13.90;99.90;;;;;;5005853;28;20703;-61
2022/05/22 08:00:17;;;;;;;3.70;1.67;;;14.00;99.90;;;;;;4953615;28;20651;-62
2022/05/22 08:02:45;;;;;;;4.25;1.58;;;13.90;99.90;;;;;;5005651;28;20698;-61
2022/05/22 08:05:15;;;;;;;3.42;1.50;;;13.80;99.90;;;;;;4978732;28;20222;-61
2022/05/22 08:07:42;;;;;;;6.28;2.17;;;13.80;99.90;;;;;;4982107;23;20247;-61
2022/05/22 08:10:11;;;;;;;4.72;1.55;;;14.00;99.90;;;;;;4899403;28;20225;-63
2022/05/22 08:12:39;;;;;;;6.30;1.80;;;13.90;99.90;;;;;;4932664;28;20236;-62
2022/05/22 08:15:08;;;;;;;4.88;1.58;;;14.20;99.90;;;;;;4917442;28;20235;-61
2022/05/22 08:17:36;;;;;;;5.72;1.58;;;;;;;;;;4923699;28;21088;-61
2022/05/22 08:20:04;;;;;;;7.40;1.83;;;14.20;99.90;;;;;;4931766;28;20814;-61
2022/05/22 08:22:33;;;;;;;3.40;1.50;;;14.20;99.90;;;;;;4931926;28;20210;-61
2022/05/22 08:25:02;;;;;;;7.30;1.40;;;14.20;99.90;;;;;;4937290;28;20208;-61
2022/05/22 08:27:28;;;;;;;2.92;1.10;;;14.20;99.90;;;;;;4941118;28;20206;-61
2022/05/22 08:29:56;;;;;;;4.72;1.38;;;14.10;99.90;;;;;;4911106;28;20208;-61
2022/05/22 08:32:23;;;;;;;4.47;1.50;;;16.00;99.90;;;;;;4925271;28;20987;-61
2022/05/22 08:34:53;;;;;;;8.20;1.40;;;14.20;99.90;;;;;;4930953;28;20725;-62
2022/05/22 08:37:20;;;;;;;3.72;1.30;;;14.30;99.90;;;;;;4926930;28;20429;-61
2022/05/22 08:39:48;;;;;;;5.63;2.05;;;14.20;99.90;;;;;;4942408;28;20806;-62
2022/05/22 08:42:25;;;;;;;8.80;1.40;;;14.20;99.90;;;;;;4908608;28;20227;-62
2022/05/22 08:44:56;;;;;;;4.05;1.55;;;14.20;99.90;;;;;;4921609;28;20207;-62
2022/05/22 08:47:28;;;;;;;5.38;1.30;;;14.30;99.90;;;;;;4930456;28;20208;-62
2022/05/22 08:49:59;;;;;;;4.90;1.38;;;14.30;99.90;;;;;;4923654;28;20636;-62
2022/05/22 08:52:31;;;;;;;4.25;1.55;;;14.30;99.90;;;;;;4922951;28;20725;-61
2022/05/22 08:55:04;;;;;;;10.95;2.10;;;14.40;99.90;;;;;;4937334;28;22008;-62
2022/05/22 09:00:24;;;;;;;5.50;1.20;;;14.50;99.90;;;;;;4934001;28;20304;-62
2022/05/22 09:03:00;;;;;;;2.78;1.20;;;14.60;99.90;;;;;;4916015;28;20224;-61
2022/05/22 09:05:30;;;;;;;2.70;1.33;;;14.60;99.90;;;;;;4941815;28;20203;-61
2022/05/22 09:08:03;;;;;;;5.00;1.30;;;14.60;99.90;;;;;;4933805;28;20228;-61
2022/05/22 09:10:47;;;;;;;4.90;1.13;;;14.40;99.90;;;;;;4948225;28;20645;-62
2022/05/22 09:13:24;;;;;;;4.32;1.60;;;14.60;99.90;;;;;;4951658;28;20839;-61
2022/05/22 09:15:58;;;;;;;2.67;1.20;;;14.60;99.90;;;;;;4941714;28;20539;-62
2022/05/22 09:18:32;;;;;;;5.65;1.38;;;14.60;99.90;;;;;;4930153;28;20253;-62
2022/05/22 09:21:09;;;;;;;5.85;1.40;;;15.00;99.90;;;;;;4934965;28;20237;-61
2022/05/22 09:24:04;;;;;;;7.28;1.90;;;14.70;99.90;;;;;;4939647;28;20951;-61
2022/05/22 09:26:53;;;;;;;6.50;1.40;;;14.90;99.90;;;;;;4935893;28;20469;-62
2022/05/22 09:29:45;;;;;;;4.03;1.30;;;14.00;99.90;;;;;;4959681;28;20227;-61
2022/05/22 09:32:29;;;;;;;4.25;1.25;;;14.80;99.90;;;;;;4919707;28;20461;-62
2022/05/22 09:35:07;;;;;;;4.03;1.48;;;14.80;99.90;;;;;;4926047;28;20207;-61
2022/05/22 09:37:46;;;;;;;8.02;1.63;;;14.70;99.90;;;;;;4943652;28;20223;-62
2022/05/22 09:40:23;;;;;;;6.13;1.20;;;14.80;99.90;;;;;;4946385;28;20238;-62
2022/05/22 09:43:24;;;;;;;7.15;1.40;;;14.90;99.90;;;;;;4929914;28;20258;-61
2022/05/22 09:46:01;;;;;;;3.13;1.40;;;15.20;99.90;;;;;;4960490;28;20231;-61
2022/05/22 09:48:42;;;;;;;5.60;1.55;;;15.20;99.90;;;;;;4938132;28;20761;-62
2022/05/22 09:51:16;;;;;;;5.78;1.40;;;15.10;99.90;;;;;;4943202;28;20580;-62
2022/05/22 09:53:58;;;;;;;4.45;1.50;;;15.20;99.90;;;;;;4930878;28;20225;-61
2022/05/22 09:56:35;;;;;;;4.07;1.20;;;14.50;99.90;;;;;;4929458;28;20246;-62
2022/05/22 09:59:37;;;;;;;6.22;1.30;;;15.20;99.90;;;;;;4947680;28;20231;-61
2022/05/22 10:02:15;;;;;;;4.47;1.42;;;15.40;99.90;;;;;;4950542;28;20222;-62
2022/05/22 10:04:52;;;;;;;6.32;1.73;;;15.40;99.90;;;;;;4929100;28;20346;-62
2022/05/22 10:07:26;;;;;;;3.78;1.20;;;15.40;99.90;;;;;;4963390;28;20321;-61
2022/05/22 10:10:00;;;;;;;3.95;1.55;;;15.40;99.90;;;;;;4952262;28;20207;-61
2022/05/22 10:12:38;;;;;;;3.42;0.98;;;15.50;99.90;;;;;;4939931;28;20231;-61
2022/05/22 10:15:19;;;;;;;1.42;0.93;;;15.60;99.90;;;;;;4947528;28;20215;-62
2022/05/22 10:17:57;;;;;;;5.30;1.40;;;16.00;99.90;;;;;;4942961;28;20329;-62
2022/05/22 10:20:37;;;;;;;3.50;1.10;;;16.20;99.90;;;;;;4953296;28;20214;-62
2022/05/22 10:23:12;;;;;;;5.47;1.35;;;16.20;99.90;;;;;;4952711;28;20245;-62
2022/05/22 10:25:52;;;;;;;1.75;1.10;;;16.00;99.90;;;;;;4946445;28;20223;-62
2022/05/22 10:28:22;;;;;;;4.25;1.17;;;16.20;99.90;;;;;;4944448;28;20698;-62
2022/05/22 10:30:56;;;;;;;4.35;1.60;;;16.10;99.90;;;;;;4939963;28;20238;-62
2022/05/22 10:33:29;;;;;;;3.00;1.20;;;16.30;99.90;;;;;;4939165;28;20318;-61
2022/05/22 10:36:05;;;;;;;4.65;1.40;;;16.40;99.90;;;;;;4943024;28;20210;-62
2022/05/22 10:38:37;;;;;;;2.83;1.50;;;16.40;99.90;;;;;;4954969;28;20238;-62
2022/05/22 10:44:07;;;;;;;7.63;1.67;;;16.50;99.90;;;;;;4944891;28;20810;-61
2022/05/22 10:46:46;;;;;;;2.30;1.33;;;16.40;99.90;;;;;;4949310;28;22993;-61
2022/05/22 10:49:12;;;;;;;3.97;1.33;;;16.30;99.90;;;;;;4942100;28;20811;-62
2022/05/22 10:51:39;;;;;;;5.32;1.33;;;16.80;99.90;;;;;;4953003;28;20203;-61
2022/05/22 10:54:06;;;;;;;4.15;1.30;;;16.40;99.90;;;;;;4954646;28;20214;-61
2022/05/22 10:56:36;;;;;;;3.88;1.48;;;16.30;99.90;;;;;;4950755;28;20204;-61
2022/05/22 10:59:05;;;;;;;4.82;1.70;;;16.30;99.90;;;;;;4940608;28;20764;-62
2022/05/22 11:01:36;;;;;;;5.88;1.50;;;16.50;99.90;;;;;;4943466;28;20214;-61
2022/05/22 11:04:06;;;;;;;3.42;1.33;;;16.50;99.90;;;;;;4924834;28;20234;-62
2022/05/22 11:06:36;;;;;;;6.38;1.30;;;16.60;99.90;;;;;;4954473;28;20232;-61
2022/05/22 11:09:05;;;;;;;2.58;1.15;;;16.60;99.90;;;;;;4946656;28;20219;-61
2022/05/22 11:11:33;;;;;;;4.45;1.45;;;16.90;99.90;;;;;;4946995;28;20215;-61
2022/05/22 11:16:38;;;;;;;3.72;1.10;;;16.70;99.90;;;;;;4974130;23;20283;-62
2022/05/22 11:19:09;;;;;;;2.55;0.90;;;16.80;99.90;;;;;;4970560;28;20379;-62
2022/05/22 11:21:44;;;;;;;2.58;0.95;;;16.50;99.90;;;;;;4963952;28;20226;-62
2022/05/22 11:24:23;;;;;;;7.50;1.08;;;16.40;99.90;;;;;;4983207;28;20236;-62
2022/05/22 11:27:06;;;;;;;3.90;1.35;;;16.30;99.90;;;;;;4980695;28;20234;-61
2022/05/22 11:29:58;;;;;;;2.85;0.93;;;16.30;99.90;;;;;;4965361;28;20233;-62
2022/05/22 11:32:42;;;;;;;4.93;1.55;;;16.30;99.90;;;;;;4974082;28;20221;-61
2022/05/22 11:35:34;;;;;;;3.38;1.33;;;16.50;99.90;;;;;;4958167;28;20904;-62
2022/05/22 11:38:24;;;;;;;2.55;1.15;;;16.50;99.90;;;;;;4951890;28;20232;-62
2022/05/22 11:41:01;;;;;;;3.20;1.30;;;16.40;99.90;;;;;;4977481;28;20733;-62
2022/05/22 11:43:44;;;;;;;2.95;1.00;;;16.60;99.90;;;;;;4991203;28;20605;-62
2022/05/22 11:46:16;;;;;;;4.45;1.85;;;16.70;99.90;;;;;;4963943;28;20233;-61
2022/05/22 11:49:01;;;;;;;5.55;1.50;;;16.50;99.90;;;;;;4985799;28;20210;-61
2022/05/22 11:51:48;;;;;;;5.35;1.42;;;16.40;99.90;;;;;;4966758;28;21015;-61
2022/05/22 11:54:28;;;;;;;2.95;0.98;;;16.40;99.90;;;;;;4960810;28;20872;-62
2022/05/22 11:57:10;;;;;;;2.63;1.13;;;13.50;99.90;;;;;;4984180;28;20719;-61
2022/05/22 12:00:09;;;;;;;4.60;1.00;;;16.30;99.90;;;;;;4997142;28;20225;-61
2022/05/22 12:03:02;;;;;;;4.00;1.40;;;16.40;99.90;;;;;;4983232;28;20744;-61
2022/05/22 12:05:46;;;;;;;1.98;0.95;;;16.20;99.90;;;;;;4989713;28;20210;-61
2022/05/22 12:08:29;;;;;;;5.75;1.95;;;16.20;99.90;;;;;;4952400;28;21959;-62
2022/05/22 12:11:01;;;;;;;2.78;1.08;;;16.50;99.90;;;;;;4984540;28;20348;-62
2022/05/22 12:13:35;;;;;;;7.65;1.90;;;16.60;99.90;;;;;;4981626;28;20248;-61
2022/05/22 12:16:09;;;;;;;4.28;1.08;;;16.60;99.90;;;;;;4972725;28;20246;-61
2022/05/22 12:19:01;;;;;;;7.70;1.88;;;16.70;99.90;;;;;;4979909;28;20230;-61
2022/05/22 12:21:43;;;;;;;2.35;1.13;;;16.70;99.90;;;;;;4990797;28;20733;-61
2022/05/22 12:24:17;;;;;;;6.95;1.65;;;16.80;99.90;;;;;;4950225;28;20276;-61
2022/05/22 12:26:45;;;;;;;2.20;1.35;;;17.10;99.90;;;;;;4977193;28;20318;-61
2022/05/22 12:29:15;;;;;;;3.53;1.30;;;16.90;99.90;;;;;;4972292;28;20297;-62
2022/05/22 12:31:49;;;;;;;5.13;1.20;;;17.00;99.90;;;;;;4961212;28;20351;-61
2022/05/22 12:34:18;;;;;;;3.80;1.25;;;15.60;99.90;;;;;;4971136;28;20972;-61
2022/05/22 12:36:50;;;;;;;4.13;1.48;;;17.20;99.90;;;;;;4992490;28;20226;-62
2022/05/22 12:39:19;;;;;;;5.28;1.15;;;17.00;99.90;;;;;;4965437;28;20217;-62
2022/05/22 12:41:54;;;;;;;2.78;1.00;;;17.20;99.90;;;;;;4981344;28;20313;-62
2022/05/22 12:44:22;;;;;;;2.38;1.00;;;17.20;99.90;;;;;;4982470;28;20230;-62
2022/05/22 12:46:50;;;;;;;3.42;1.25;;;17.40;99.90;;;;;;4978903;28;20218;-62
2022/05/22 12:49:24;;;;;;;3.05;1.33;;;17.30;99.90;;;;;;4977327;28;22343;-62
2022/05/22 12:52:01;;;;;;;4.90;1.55;;;17.50;99.90;;;;;;4983120;28;24297;-62
2022/05/22 12:54:30;;;;;;;4.05;1.30;;;17.40;99.90;;;;;;4953665;28;20604;-62
2022/05/22 12:57:13;;;;;;;9.95;1.38;;;17.40;99.90;;;;;;4980293;28;20211;-62
2022/05/22 12:59:52;;;;;;;2.38;1.40;;;17.30;99.90;;;;;;4990879;28;20233;-61
2022/05/22 13:02:28;;;;;;;4.10;1.23;;;17.30;99.90;;;;;;4981908;28;20229;-62
2022/05/22 13:04:58;;;;;;;2.17;1.17;;;17.40;99.90;;;;;;4978309;28;20237;-61
2022/05/22 13:07:32;;;;;;;1.50;1.00;;;17.40;99.90;;;;;;4998864;28;20275;-61
2022/05/22 13:09:59;;;;;;;6.75;1.40;;;;;;;;;;4973017;28;20217;-61
2022/05/22 13:12:30;;;;;;;3.53;1.92;;;17.50;99.90;;;;;;4985950;28;20218;-61
2022/05/22 13:15:01;;;;;;;1.40;1.17;;;17.50;99.90;;;;;;4987100;28;20257;-62
2022/05/22 13:17:39;;;;;;;6.25;1.10;;;17.70;99.90;;;;;;4979109;28;20328;-61
2022/05/22 13:20:09;;;;;;;3.88;1.50;;;17.60;99.90;;;;;;4986510;28;20202;-61
2022/05/22 13:22:39;;;;;;;2.63;1.08;;;17.50;99.90;;;;;;4992333;28;20214;-61
2022/05/22 13:25:10;;;;;;;1.55;0.95;;;17.60;99.90;;;;;;4966036;28;21262;-62